Saint Marys, Pennsylvania
Current Conditions -  °F | °C
As of 4:53 AM on Sunday 25 Jan 2015 (Local Time) from KDUJ Reporting Station
Haze Haze  
Wind Chill: 21°   Ceiling: 300
Heat Index: 31°   Visibility: 1.7mi
Dew Point: 29°   Wind: 14mph
Humidity: 92%   Direction: 270°W
Pressure: 29.65"   Gusts: NA
Location:  41.43°N, 78.56°W
Report Text: KDUJ 250953Z AUTO 27012KT 1 3/4SM BR OVC003 M01/M02 A2965 RMK AO2 SLP061 I1001 T10061017
Loading
Personal Weather Stations






























Interactive Weather Map New forecast layout! Learn more

10-Day Weather Forecast

Advertisements
Track Severe Weather on mobile